createdAt,value
2023-03-02T00:00:10.899Z,32.80
2023-03-02T00:05:15.064Z,32.50
2023-03-02T00:10:17.548Z,38.80
2023-03-02T00:15:21.431Z,32.03
2023-03-02T00:20:23.951Z,34.30
2023-03-02T00:25:26.200Z,35.30
2023-03-02T00:30:30.070Z,32.37
2023-03-02T00:35:32.580Z,35.27
2023-03-02T00:40:37.675Z,39.53
2023-03-02T00:45:41.361Z,39.23
2023-03-02T00:50:44.140Z,38.37
2023-03-02T00:55:54.905Z,42.07
2023-03-02T01:00:58.601Z,42.03
2023-03-02T01:06:01.231Z,40.30
2023-03-02T01:11:03.785Z,35.60
2023-03-02T01:16:08.442Z,43.03
2023-03-02T01:21:13.389Z,36.33
2023-03-02T01:26:15.597Z,34.83
2023-03-02T01:31:18.991Z,41.90
2023-03-02T01:36:21.286Z,38.07
2023-03-02T01:41:23.445Z,38.87
2023-03-02T01:46:28.625Z,41.63
2023-03-02T01:51:34.970Z,36.37
2023-03-02T01:56:41.071Z,46.30
2023-03-02T02:01:50.592Z,46.20
2023-03-02T02:06:58.094Z,47.63
2023-03-02T02:12:00.643Z,47.07
2023-03-02T02:17:04.320Z,38.70
2023-03-02T02:22:07.020Z,46.40
2023-03-02T02:27:10.953Z,43.43
2023-03-02T02:32:18.474Z,42.53
2023-03-02T02:37:24.373Z,43.17
2023-03-02T02:42:32.052Z,41.87
2023-03-02T02:47:35.160Z,43.70
2023-03-02T02:52:38.157Z,38.23
2023-03-02T02:57:42.906Z,39.80
2023-03-02T03:02:49.096Z,36.80
2023-03-02T03:07:51.525Z,37.43
2023-03-02T03:12:55.240Z,44.40
2023-03-02T03:17:57.478Z,47.00
2023-03-02T03:23:00.983Z,39.10
2023-03-02T03:28:04.769Z,43.10
2023-03-02T03:33:06.717Z,42.30
2023-03-02T03:38:08.956Z,39.43
2023-03-02T03:43:15.291Z,46.53
2023-03-02T03:48:17.338Z,42.07
2023-03-02T03:53:19.087Z,43.03
2023-03-02T03:58:22.425Z,41.00
2023-03-02T04:03:25.764Z,38.50
2023-03-02T04:08:28.207Z,39.13
2023-03-02T04:13:31.600Z,37.23
2023-03-02T04:18:33.707Z,37.17
2023-03-02T04:23:35.894Z,40.17
2023-03-02T04:28:39.240Z,36.53
2023-03-02T04:33:41.694Z,37.73
2023-03-02T04:38:43.915Z,41.00
2023-03-02T04:43:47.718Z,35.60
2023-03-02T04:48:49.752Z,34.93
2023-03-02T04:53:52.415Z,35.87
2023-03-02T04:58:56.799Z,38.60
2023-03-02T05:04:00.739Z,41.33
2023-03-02T05:09:05.125Z,42.53
2023-03-02T05:14:10.862Z,47.60
2023-03-02T05:19:13.613Z,50.53
2023-03-02T05:24:15.455Z,41.70
2023-03-02T05:29:19.028Z,42.50
2023-03-02T05:34:22.526Z,44.23
2023-03-02T05:39:25.086Z,38.27
2023-03-02T05:44:28.966Z,35.57
2023-03-02T05:49:31.309Z,38.50
2023-03-02T05:54:33.705Z,44.67
2023-03-02T05:59:37.871Z,46.97
2023-03-02T06:04:44.596Z,42.33
2023-03-02T06:09:46.797Z,41.63
2023-03-02T06:14:50.716Z,43.57
2023-03-02T06:19:52.809Z,41.73
2023-03-02T06:24:55.468Z,50.23
2023-03-02T06:29:58.844Z,43.70
2023-03-02T06:35:01.380Z,44.40
2023-03-02T06:40:08.804Z,40.97
2023-03-02T06:45:13.029Z,46.17
2023-03-02T06:50:15.427Z,36.37
2023-03-02T06:55:17.940Z,41.80
2023-03-02T07:00:28.195Z,43.93
2023-03-02T07:05:32.351Z,45.73
2023-03-02T07:10:34.648Z,40.13
2023-03-02T07:15:40.403Z,44.50
2023-03-02T07:20:42.671Z,49.27
2023-03-02T07:25:44.948Z,53.67
2023-03-02T07:30:48.509Z,50.80
2023-03-02T07:35:50.731Z,57.43
2023-03-02T07:40:53.323Z,53.40
2023-03-02T07:45:59.474Z,57.37
2023-03-02T07:51:01.758Z,55.30
2023-03-02T07:56:08.999Z,56.47
2023-03-02T08:01:12.971Z,60.93
2023-03-02T08:06:15.580Z,51.93
2023-03-02T08:11:19.580Z,50.10
2023-03-02T08:16:25.129Z,45.03
2023-03-02T08:21:28.621Z,43.60
2023-03-02T08:26:31.181Z,44.73
2023-03-02T08:31:35.505Z,53.17
2023-03-02T08:36:38.366Z,42.37
2023-03-02T08:41:40.821Z,38.60
2023-03-02T08:46:44.379Z,38.07
2023-03-02T08:51:47.138Z,34.00
2023-03-02T08:56:50.312Z,36.27
2023-03-02T09:01:54.153Z,32.93
2023-03-02T09:06:56.436Z,36.03
2023-03-02T09:11:58.960Z,34.47
2023-03-02T09:17:02.539Z,34.13
2023-03-02T09:22:04.740Z,35.87
2023-03-02T09:27:07.137Z,37.53
2023-03-02T09:32:11.989Z,36.07
2023-03-02T09:37:14.735Z,35.53
2023-03-02T09:42:44.667Z,35.87
2023-03-02T09:47:56.954Z,39.83
2023-03-02T09:53:32.498Z,35.13
2023-03-02T09:58:39.676Z,34.30
2023-03-02T10:03:49.924Z,35.53
2023-03-02T10:08:52.436Z,37.03
2023-03-02T10:14:00.928Z,35.73
2023-03-02T10:19:15.212Z,34.93
2023-03-02T10:24:29.172Z,32.97
2023-03-02T10:29:44.261Z,33.83
2023-03-02T10:34:50.132Z,31.07
2023-03-02T10:39:52.828Z,32.77
2023-03-02T10:44:59.125Z,32.38
2023-03-02T10:50:02.852Z,30.27
2023-03-02T10:55:06.191Z,27.85
2023-03-02T11:00:18.560Z,27.63
2023-03-02T11:05:27.709Z,29.80
2023-03-02T11:10:32.403Z,33.05
2023-03-02T11:15:42.332Z,32.40
2023-03-02T11:20:50.423Z,30.05
2023-03-02T11:25:55.737Z,29.90
2023-03-02T11:31:00.993Z,33.40
2023-03-02T11:36:11.066Z,30.50
2023-03-02T11:41:27.435Z,34.67
2023-03-02T11:46:31.895Z,38.37
2023-03-02T11:51:44.674Z,39.87
2023-03-02T11:56:52.701Z,40.47
2023-03-02T12:01:57.108Z,47.13
2023-03-02T12:07:01.578Z,47.33
2023-03-02T12:12:32.840Z,44.90
2023-03-02T12:17:36.889Z,43.00
2023-03-02T12:22:41.505Z,41.97
2023-03-02T12:27:43.799Z,45.30
2023-03-02T12:32:48.540Z,51.57
2023-03-02T12:37:57.503Z,51.60
2023-03-02T12:43:26.700Z,47.90
2023-03-02T12:48:33.104Z,51.20
2023-03-02T12:53:37.653Z,51.30
2023-03-02T12:58:39.763Z,48.07
2023-03-02T13:03:49.142Z,50.17
2023-03-02T13:08:56.088Z,51.43
2023-03-02T13:13:59.210Z,49.13
2023-03-02T13:19:03.177Z,50.97
2023-03-02T13:24:27.831Z,54.87
2023-03-02T13:29:32.134Z,51.70
2023-03-02T13:34:35.821Z,49.93
2023-03-02T13:39:39.245Z,51.80
2023-03-02T13:44:41.244Z,54.33
2023-03-02T13:49:43.033Z,54.03
2023-03-02T13:54:48.400Z,57.83
2023-03-02T13:59:51.023Z,56.70
2023-03-02T14:04:54.257Z,59.30
2023-03-02T14:09:58.628Z,56.30
2023-03-02T14:15:03.585Z,57.67
2023-03-02T14:20:06.578Z,57.20
2023-03-02T14:25:11.335Z,57.63
2023-03-02T14:30:18.525Z,55.67
2023-03-02T14:35:20.712Z,53.33
2023-03-02T14:40:27.437Z,50.00
2023-03-02T14:45:30.943Z,58.23
2023-03-02T14:50:36.682Z,61.53
2023-03-02T14:55:43.318Z,55.60
2023-03-02T15:00:46.401Z,51.53
2023-03-02T15:06:00.380Z,53.90
2023-03-02T15:11:04.865Z,55.93
2023-03-02T15:16:08.124Z,56.77
2023-03-02T15:21:17.143Z,61.07
2023-03-02T15:26:20.903Z,57.63
2023-03-02T15:31:23.175Z,54.57
2023-03-02T15:36:26.709Z,58.10
2023-03-02T15:41:30.930Z,55.57
2023-03-02T15:46:33.295Z,53.80
2023-03-02T15:51:35.327Z,56.77
2023-03-02T15:56:44.284Z,52.73
2023-03-02T16:01:47.612Z,59.93
2023-03-02T16:06:50.116Z,60.17
2023-03-02T16:11:54.718Z,50.43
2023-03-02T16:16:56.962Z,66.40
2023-03-02T16:21:59.423Z,54.83
2023-03-02T16:27:03.220Z,51.53
2023-03-02T16:32:06.885Z,54.10
2023-03-02T16:37:08.960Z,58.37
2023-03-02T16:42:12.807Z,48.23
2023-03-02T16:47:15.088Z,59.57
2023-03-02T16:52:18.573Z,53.63
2023-03-02T16:57:22.784Z,50.63
2023-03-02T17:02:25.054Z,55.50
2023-03-02T17:07:28.349Z,57.80
2023-03-02T17:12:32.407Z,54.40
2023-03-02T17:17:35.649Z,57.03
2023-03-02T17:22:38.936Z,53.27
2023-03-02T17:27:42.516Z,56.23
2023-03-02T17:32:46.179Z,51.80
2023-03-02T17:37:48.545Z,62.17
2023-03-02T17:42:55.786Z,61.67
2023-03-02T17:48:03.376Z,61.60
2023-03-02T17:53:06.727Z,54.90
2023-03-02T17:58:11.138Z,54.50
2023-03-02T18:03:14.586Z,57.67
2023-03-02T18:08:18.583Z,58.07
2023-03-02T18:13:23.396Z,57.83
2023-03-02T18:18:26.961Z,57.83
2023-03-02T18:23:33.175Z,54.10
2023-03-02T18:28:37.650Z,61.03
2023-03-02T18:33:40.855Z,60.80
2023-03-02T18:38:44.610Z,57.77
2023-03-02T18:43:49.583Z,63.67
2023-03-02T18:48:53.264Z,65.83
2023-03-02T18:53:56.626Z,63.10
2023-03-02T18:59:01.629Z,64.87
2023-03-02T19:04:06.560Z,62.90
2023-03-02T19:09:10.741Z,55.47
2023-03-02T19:14:16.099Z,59.77
2023-03-02T19:19:19.767Z,58.73
2023-03-02T19:24:32.527Z,60.23
2023-03-02T19:29:41.898Z,64.77
2023-03-02T19:34:45.864Z,59.13
2023-03-02T19:39:50.484Z,55.20
2023-03-02T19:44:56.964Z,56.50
2023-03-02T19:50:00.717Z,61.83
2023-03-02T19:55:05.498Z,55.83
2023-03-02T20:00:15.533Z,55.40
2023-03-02T20:05:19.757Z,56.33
2023-03-02T20:10:29.484Z,58.57
2023-03-02T20:15:38.848Z,49.13
2023-03-02T20:20:53.189Z,50.67
2023-03-02T20:25:57.463Z,61.27
2023-03-02T20:31:08.060Z,55.00
2023-03-02T20:36:13.751Z,54.73
2023-03-02T20:41:18.487Z,55.43
2023-03-02T20:46:27.811Z,53.40
2023-03-02T20:51:30.795Z,60.70
2023-03-02T20:56:35.363Z,55.43
2023-03-02T21:01:41.895Z,54.47
2023-03-02T21:06:46.720Z,56.20
2023-03-02T21:11:52.482Z,54.90
2023-03-02T21:16:56.980Z,57.53
2023-03-02T21:22:00.702Z,62.27
2023-03-02T21:27:04.397Z,56.30
2023-03-02T21:32:09.836Z,58.10
2023-03-02T21:37:13.301Z,59.57
2023-03-02T21:42:15.278Z,52.07
2023-03-02T21:47:19.433Z,53.63
2023-03-02T21:52:22.512Z,62.23
2023-03-02T21:57:25.535Z,58.60
2023-03-02T22:02:29.266Z,61.07
2023-03-02T22:07:31.651Z,52.80
2023-03-02T22:12:33.811Z,50.87
2023-03-02T22:17:37.545Z,54.33
2023-03-02T22:22:39.677Z,56.37
2023-03-02T22:27:42.695Z,62.47
2023-03-02T22:32:46.794Z,56.60
2023-03-02T22:37:49.559Z,58.77
2023-03-02T22:42:54.460Z,56.33
2023-03-02T22:48:03.414Z,60.60
2023-03-02T22:53:49.438Z,52.93
2023-03-02T22:59:37.840Z,59.37
2023-03-02T23:04:42.996Z,55.57
2023-03-02T23:09:45.302Z,60.67
2023-03-02T23:14:50.719Z,57.10
2023-03-02T23:19:54.752Z,54.17
2023-03-02T23:24:57.115Z,55.97
2023-03-02T23:29:59.441Z,59.13
2023-03-02T23:35:02.986Z,52.30
2023-03-02T23:40:05.743Z,62.87
2023-03-02T23:45:09.149Z,57.57
2023-03-02T23:50:14.111Z,63.27
2023-03-02T23:55:16.663Z,65.57
